Time,TemperatureF,DewpointF,PressureIn,WindDirection,WindDirectionDegrees,WindSpeedMPH,WindSpeedGustMPH,Humidity,HourlyPrecipIn,Conditions,Clouds,dailyrainin,SoftwareType,DateUTC
2013-07-24 00:06:00,81.2,69.0,29.54,NNW,336,0.0,1.0,66,0.00,,,0.00,weatherlink.com 1.10,2013-07-24 04:06:00,
2013-07-24 00:21:00,81.0,69.0,29.54,East,92,1.0,1.0,66,0.00,,,0.00,weatherlink.com 1.10,2013-07-24 04:21:00,
2013-07-24 00:36:00,80.5,69.0,29.54,ESE,108,0.0,2.0,67,0.00,,,0.00,weatherlink.com 1.10,2013-07-24 04:36:00,
2013-07-24 00:51:00,80.1,69.0,29.54,ESE,103,0.0,2.0,68,0.00,,,0.00,weatherlink.com 1.10,2013-07-24 04:51:00,
2013-07-24 01:06:00,79.8,68.0,29.54,ESE,103,0.0,2.0,68,0.00,,,0.00,weatherlink.com 1.10,2013-07-24 05:06:00,
2013-07-24 01:21:00,79.5,68.0,29.54,North,356,1.0,2.0,69,0.00,,,0.00,weatherlink.com 1.10,2013-07-24 05:21:00,
2013-07-24 01:36:00,79.3,68.0,29.54,SE,131,0.0,2.0,69,0.00,,,0.00,weatherlink.com 1.10,2013-07-24 05:36:00,
2013-07-24 01:51:00,78.8,68.0,29.54,ESE,102,0.0,1.0,70,0.00,,,0.00,weatherlink.com 1.10,2013-07-24 05:51:00,
2013-07-24 02:06:00,78.6,68.0,29.54,ESE,123,0.0,2.0,70,0.00,,,0.00,weatherlink.com 1.10,2013-07-24 06:06:00,
2013-07-24 02:36:00,78.6,68.0,29.54,North,5,1.0,1.0,70,0.00,,,0.00,weatherlink.com 1.10,2013-07-24 06:36:00,
2013-07-24 03:06:00,78.7,67.0,29.53,SSE,161,0.0,2.0,68,0.00,,,0.00,weatherlink.com 1.10,2013-07-24 07:06:00,
2013-07-24 03:21:00,78.8,67.0,29.53,ESE,117,1.0,2.0,68,0.00,,,0.00,weatherlink.com 1.10,2013-07-24 07:21:00,
2013-07-24 03:36:00,78.9,67.0,29.53,SE,134,0.0,3.0,68,0.00,,,0.00,weatherlink.com 1.10,2013-07-24 07:36:00,
2013-07-24 04:06:00,78.2,68.0,29.53,SSE,162,1.0,2.0,71,0.00,,,0.00,weatherlink.com 1.10,2013-07-24 08:06:00,
2013-07-24 04:21:00,78.1,68.0,29.53,SE,136,0.0,1.0,72,0.00,,,0.00,weatherlink.com 1.10,2013-07-24 08:21:00,
2013-07-24 04:36:00,78.2,69.0,29.53,SE,131,2.0,2.0,73,0.00,,,0.00,weatherlink.com 1.10,2013-07-24 08:36:00,
2013-07-24 04:51:00,77.8,69.0,29.53,SSE,149,1.0,3.0,75,0.00,,,0.00,weatherlink.com 1.10,2013-07-24 08:51:00,
2013-07-24 05:06:00,77.8,69.0,29.53,SE,135,0.0,3.0,73,0.00,,,0.00,weatherlink.com 1.10,2013-07-24 09:06:00,
2013-07-24 05:21:00,77.5,69.0,29.53,SE,142,0.0,1.0,74,0.00,,,0.00,weatherlink.com 1.10,2013-07-24 09:21:00,
2013-07-24 05:36:00,77.3,69.0,29.54,SE,146,0.0,1.0,75,0.00,,,0.00,weatherlink.com 1.10,2013-07-24 09:36:00,
2013-07-24 05:51:00,77.0,68.0,29.55,SE,131,1.0,2.0,74,0.00,,,0.00,weatherlink.com 1.10,2013-07-24 09:51:00,
2013-07-24 06:06:00,85.8,70.0,29.55,ENE,72,1.0,4.0,59,0.00,,,0.00,weatherlink.com 1.10,2013-07-24 10:06:00,
2013-07-24 06:21:00,88.0,69.0,29.56,South,186,3.0,4.0,54,0.00,,,0.00,weatherlink.com 1.10,2013-07-24 10:21:00,
2013-07-24 06:37:00,88.7,69.0,29.56,SE,139,4.0,4.0,53,0.00,,,0.00,weatherlink.com 1.10,2013-07-24 10:37:00,
2013-07-24 06:51:00,88.5,69.0,29.57,ESE,115,2.0,5.0,53,0.00,,,0.00,weatherlink.com 1.10,2013-07-24 10:51:00,
2013-07-24 07:06:00,87.4,69.0,29.57,SE,133,2.0,4.0,54,0.00,,,0.00,weatherlink.com 1.10,2013-07-24 11:06:00,
2013-07-24 07:21:00,87.5,69.0,29.57,North,1,2.0,5.0,54,0.00,,,0.00,weatherlink.com 1.10,2013-07-24 11:21:00,
2013-07-24 07:37:00,85.9,69.0,29.58,SE,146,3.0,5.0,57,0.00,,,0.00,weatherlink.com 1.10,2013-07-24 11:37:00,
2013-07-24 07:52:00,81.2,68.0,29.59,ENE,75,3.0,5.0,65,0.00,,,0.00,weatherlink.com 1.10,2013-07-24 11:52:00,
2013-07-24 08:07:00,81.6,67.0,29.59,NNE,19,1.0,10.0,61,0.00,,,0.00,weatherlink.com 1.10,2013-07-24 12:07:00,
2013-07-24 08:22:00,81.5,67.0,29.60,SE,146,1.0,5.0,61,0.00,,,0.00,weatherlink.com 1.10,2013-07-24 12:22:00,
2013-07-24 08:37:00,83.5,67.0,29.61,South,191,2.0,8.0,57,0.00,,,0.00,weatherlink.com 1.10,2013-07-24 12:37:00,
2013-07-24 08:52:00,81.6,66.0,29.61,NNE,25,0.0,7.0,59,0.00,,,0.00,weatherlink.com 1.10,2013-07-24 12:52:00,
2013-07-24 09:07:00,82.3,66.0,29.61,SSE,150,2.0,9.0,58,0.00,,,0.00,weatherlink.com 1.10,2013-07-24 13:07:00,
2013-07-24 09:22:00,80.7,64.0,29.62,East,93,1.0,9.0,58,0.00,,,0.00,weatherlink.com 1.10,2013-07-24 13:22:00,
2013-07-24 09:37:00,80.7,64.0,29.62,SE,146,3.0,9.0,58,0.00,,,0.00,weatherlink.com 1.10,2013-07-24 13:37:00,
2013-07-24 09:52:00,82.1,65.0,29.63,NE,44,1.0,7.0,57,0.00,,,0.00,weatherlink.com 1.10,2013-07-24 13:52:00,
2013-07-24 10:07:00,86.5,66.0,29.63,NW,319,0.0,7.0,50,0.00,,,0.00,weatherlink.com 1.10,2013-07-24 14:07:00,
2013-07-24 10:22:00,83.9,65.0,29.63,SSE,150,3.0,7.0,53,0.00,,,0.00,weatherlink.com 1.10,2013-07-24 14:22:00,
2013-07-24 10:37:00,87.7,64.0,29.64,NNW,330,2.0,6.0,45,0.00,,,0.00,weatherlink.com 1.10,2013-07-24 14:37:00,
2013-07-24 10:52:00,85.4,63.0,29.64,ESE,112,2.0,6.0,48,0.00,,,0.00,weatherlink.com 1.10,2013-07-24 14:52:00,
2013-07-24 11:07:00,85.5,64.0,29.64,NNW,332,1.0,6.0,48,0.00,,,0.00,weatherlink.com 1.10,2013-07-24 15:07:00,
2013-07-24 11:22:00,87.5,65.0,29.65,East,98,3.0,6.0,47,0.00,,,0.00,weatherlink.com 1.10,2013-07-24 15:22:00,
2013-07-24 11:37:00,88.5,65.0,29.65,East,79,2.0,7.0,45,0.00,,,0.00,weatherlink.com 1.10,2013-07-24 15:37:00,
2013-07-24 11:52:00,87.7,65.0,29.66,North,11,4.0,6.0,47,0.00,,,0.00,weatherlink.com 1.10,2013-07-24 15:52:00,
2013-07-24 12:07:00,88.1,65.0,29.66,SSE,161,2.0,6.0,46,0.00,,,0.00,weatherlink.com 1.10,2013-07-24 16:07:00,
2013-07-24 12:22:00,87.2,66.0,29.67,ESE,115,3.0,8.0,49,0.00,,,0.00,weatherlink.com 1.10,2013-07-24 16:22:00,
2013-07-24 12:37:00,83.3,64.0,29.67,South,175,4.0,5.0,53,0.00,,,0.00,weatherlink.com 1.10,2013-07-24 16:37:00,
2013-07-24 12:52:00,87.5,65.0,29.67,North,359,3.0,7.0,47,0.00,,,0.00,weatherlink.com 1.10,2013-07-24 16:52:00,
2013-07-24 13:07:00,83.4,63.0,29.67,SSE,152,0.0,9.0,51,0.00,,,0.00,weatherlink.com 1.10,2013-07-24 17:07:00,
2013-07-24 13:22:00,88.3,64.0,29.67,SE,126,2.0,6.0,45,0.00,,,0.00,weatherlink.com 1.10,2013-07-24 17:22:00,
2013-07-24 13:37:00,86.4,63.0,29.67,ENE,61,1.0,7.0,46,0.00,,,0.00,weatherlink.com 1.10,2013-07-24 17:37:00,
2013-07-24 13:52:00,83.9,63.0,29.67,NE,34,7.0,9.0,50,0.00,,,0.00,weatherlink.com 1.10,2013-07-24 17:52:00,
2013-07-24 14:07:00,87.9,64.0,29.68,ENE,62,2.0,6.0,45,0.00,,,0.00,weatherlink.com 1.10,2013-07-24 18:07:00,
2013-07-24 14:22:00,89.0,64.0,29.68,East,85,3.0,6.0,44,0.00,,,0.00,weatherlink.com 1.10,2013-07-24 18:22:00,
2013-07-24 14:37:00,86.1,64.0,29.68,SSW,194,2.0,6.0,48,0.00,,,0.00,weatherlink.com 1.10,2013-07-24 18:37:00,
2013-07-24 14:52:00,92.0,64.0,29.69,ESE,106,3.0,6.0,39,0.00,,,0.00,weatherlink.com 1.10,2013-07-24 18:52:00,
2013-07-24 15:07:00,87.4,62.0,29.69,WSW,250,0.0,7.0,43,0.00,,,0.00,weatherlink.com 1.10,2013-07-24 19:07:00,
2013-07-24 15:22:00,89.3,63.0,29.69,NNW,337,2.0,6.0,41,0.00,,,0.00,weatherlink.com 1.10,2013-07-24 19:22:00,
2013-07-24 15:37:00,90.9,64.0,29.68,SE,133,3.0,7.0,41,0.00,,,0.00,weatherlink.com 1.10,2013-07-24 19:37:00,
2013-07-24 15:52:00,87.6,63.0,29.69,East,84,3.0,7.0,44,0.00,,,0.00,weatherlink.com 1.10,2013-07-24 19:52:00,
2013-07-24 16:08:00,90.6,62.0,29.68,NW,316,2.0,5.0,38,0.00,,,0.00,weatherlink.com 1.10,2013-07-24 20:08:00,
2013-07-24 16:22:00,86.1,61.0,29.69,ESE,117,2.0,4.0,43,0.00,,,0.00,weatherlink.com 1.10,2013-07-24 20:22:00,
2013-07-24 16:37:00,86.2,61.0,29.69,SE,124,1.0,6.0,43,0.00,,,0.00,weatherlink.com 1.10,2013-07-24 20:37:00,
2013-07-24 16:52:00,87.4,62.0,29.69,NE,51,1.0,8.0,42,0.00,,,0.00,weatherlink.com 1.10,2013-07-24 20:52:00,
2013-07-24 17:07:00,86.5,62.0,29.69,SE,146,1.0,5.0,44,0.00,,,0.00,weatherlink.com 1.10,2013-07-24 21:07:00,
2013-07-24 17:22:00,86.0,61.0,29.69,NNW,338,3.0,6.0,43,0.00,,,0.00,weatherlink.com 1.10,2013-07-24 21:22:00,
2013-07-24 17:37:00,83.9,61.0,29.70,SSE,163,1.0,5.0,46,0.00,,,0.00,weatherlink.com 1.10,2013-07-24 21:37:00,
2013-07-24 17:52:00,84.6,60.0,29.70,North,11,4.0,6.0,43,0.00,,,0.00,weatherlink.com 1.10,2013-07-24 21:52:00,
2013-07-24 18:07:00,82.4,61.0,29.70,North,352,2.0,7.0,48,0.00,,,0.00,weatherlink.com 1.10,2013-07-24 22:07:00,
2013-07-24 18:23:00,84.9,60.0,29.71,NE,54,2.0,10.0,43,0.00,,,0.00,weatherlink.com 1.10,2013-07-24 22:23:00,
2013-07-24 18:38:00,81.8,60.0,29.71,SE,138,2.0,6.0,47,0.00,,,0.00,weatherlink.com 1.10,2013-07-24 22:38:00,
2013-07-24 18:53:00,87.4,60.0,29.72,East,94,3.0,4.0,39,0.00,,,0.00,weatherlink.com 1.10,2013-07-24 22:53:00,
2013-07-24 19:08:00,80.3,58.0,29.73,NNW,345,2.0,6.0,46,0.00,,,0.00,weatherlink.com 1.10,2013-07-24 23:08:00,
2013-07-24 19:23:00,85.2,58.0,29.73,SSW,199,2.0,5.0,40,0.00,,,0.00,weatherlink.com 1.10,2013-07-24 23:23:00,
2013-07-24 19:38:00,80.2,57.0,29.74,NNE,13,0.0,4.0,45,0.00,,,0.00,weatherlink.com 1.10,2013-07-24 23:38:00,
2013-07-24 19:53:00,83.0,58.0,29.75,ESE,115,5.0,5.0,42,0.00,,,0.00,weatherlink.com 1.10,2013-07-24 23:53:00,
2013-07-24 20:08:00,79.7,56.0,29.75,NW,313,3.0,5.0,45,0.00,,,0.00,weatherlink.com 1.10,2013-07-25 00:08:00,
2013-07-24 20:23:00,77.9,57.0,29.76,North,357,3.0,5.0,48,0.00,,,0.00,weatherlink.com 1.10,2013-07-25 00:23:00,
2013-07-24 20:38:00,77.0,56.0,29.77,North,353,4.0,7.0,49,0.00,,,0.00,weatherlink.com 1.10,2013-07-25 00:38:00,
2013-07-24 20:53:00,76.7,56.0,29.77,NNW,328,3.0,6.0,49,0.00,,,0.00,weatherlink.com 1.10,2013-07-25 00:53:00,
2013-07-24 21:08:00,76.2,56.0,29.78,NNE,25,3.0,6.0,49,0.00,,,0.00,weatherlink.com 1.10,2013-07-25 01:08:00,
2013-07-24 21:23:00,75.6,56.0,29.79,ENE,73,0.0,4.0,50,0.00,,,0.00,weatherlink.com 1.10,2013-07-25 01:23:00,
2013-07-24 21:38:00,74.8,56.0,29.80,ENE,59,5.0,6.0,52,0.00,,,0.00,weatherlink.com 1.10,2013-07-25 01:38:00,
2013-07-24 21:53:00,74.4,56.0,29.80,ENE,69,0.0,5.0,53,0.00,,,0.00,weatherlink.com 1.10,2013-07-25 01:53:00,
2013-07-24 22:08:00,74.3,57.0,29.81,NNW,340,1.0,8.0,55,0.00,,,0.00,weatherlink.com 1.10,2013-07-25 02:08:00,
2013-07-24 22:23:00,74.1,57.0,29.81,NNW,332,1.0,7.0,56,0.00,,,0.00,weatherlink.com 1.10,2013-07-25 02:23:00,
2013-07-24 22:38:00,73.4,56.0,29.82,NW,322,1.0,9.0,54,0.00,,,0.00,weatherlink.com 1.10,2013-07-25 02:38:00,
2013-07-24 22:53:00,72.9,55.0,29.83,NW,311,3.0,8.0,53,0.00,,,0.00,weatherlink.com 1.10,2013-07-25 02:53:00,
2013-07-24 23:08:00,72.0,54.0,29.83,NNW,336,3.0,7.0,54,0.00,,,0.00,weatherlink.com 1.10,2013-07-25 03:08:00,
2013-07-24 23:23:00,71.1,53.0,29.83,NW,323,2.0,9.0,53,0.00,,,0.00,weatherlink.com 1.10,2013-07-25 03:23:00,
2013-07-24 23:53:00,69.8,54.0,29.84,North,354,3.0,8.0,57,0.00,,,0.00,weatherlink.com 1.10,2013-07-25 03:53:00,